createdAt,value
2022-12-18T00:02:09.211Z,6.10
2022-12-18T00:05:00.626Z,7.95
2022-12-18T00:07:56.887Z,7.88
2022-12-18T00:10:37.424Z,7.28
2022-12-18T00:13:17.768Z,6.68
2022-12-18T00:16:14.976Z,5.80
2022-12-18T00:18:44.013Z,7.53
2022-12-18T00:21:36.053Z,4.80
2022-12-18T00:24:24.990Z,5.85
2022-12-18T00:27:21.535Z,7.15
2022-12-18T00:30:11.164Z,6.55
2022-12-18T00:33:09.924Z,6.90
2022-12-18T00:35:58.561Z,4.88
2022-12-18T00:38:33.199Z,6.78
2022-12-18T00:41:29.640Z,5.22
2022-12-18T00:44:12.600Z,6.22
2022-12-18T00:46:58.718Z,5.13
2022-12-18T00:49:47.179Z,5.63
2022-12-18T00:52:18.456Z,6.35
2022-12-18T00:54:47.209Z,6.88
2022-12-18T00:57:38.667Z,6.07
2022-12-18T01:00:27.956Z,6.57
2022-12-18T01:03:18.140Z,9.05
2022-12-18T01:06:15.056Z,6.00
2022-12-18T01:08:55.746Z,7.72
2022-12-18T01:11:54.231Z,6.53
2022-12-18T01:14:42.820Z,5.53
2022-12-18T01:17:26.130Z,5.28
2022-12-18T01:20:16.895Z,5.60
2022-12-18T01:22:47.261Z,5.72
2022-12-18T01:25:45.274Z,4.65
2022-12-18T01:28:34.209Z,5.20
2022-12-18T01:31:15.097Z,6.95
2022-12-18T01:34:19.357Z,6.68
2022-12-18T01:36:54.820Z,5.68
2022-12-18T01:39:52.083Z,5.10
2022-12-18T01:42:38.203Z,6.43
2022-12-18T01:45:17.801Z,6.53
2022-12-18T01:48:09.325Z,5.22
2022-12-18T01:51:10.809Z,5.32
2022-12-18T01:54:00.004Z,6.18
2022-12-18T01:56:51.285Z,7.03
2022-12-18T01:59:18.987Z,5.90
2022-12-18T02:05:05.500Z,5.95
2022-12-18T02:08:12.988Z,8.38
2022-12-18T02:11:12.179Z,5.15
2022-12-18T02:17:32.645Z,8.13
2022-12-18T02:20:07.459Z,8.18
2022-12-18T02:23:01.890Z,6.70
2022-12-18T02:26:55.806Z,6.80
2022-12-18T02:29:57.645Z,7.68
2022-12-18T02:32:27.180Z,8.63
2022-12-18T02:35:27.241Z,8.95
2022-12-18T02:38:11.130Z,8.63
2022-12-18T02:41:09.941Z,8.30
2022-12-18T02:43:50.709Z,7.97
2022-12-18T02:46:42.144Z,6.25
2022-12-18T02:49:59.504Z,8.63
2022-12-18T02:53:15.039Z,7.22
2022-12-18T02:56:09.000Z,7.95
2022-12-18T02:59:11.294Z,9.52
2022-12-18T03:01:57.763Z,12.10
2022-12-18T03:04:58.621Z,7.50
2022-12-18T03:08:01.652Z,11.18
2022-12-18T03:11:14.309Z,7.45
2022-12-18T03:14:01.246Z,5.30
2022-12-18T03:16:48.151Z,6.88
2022-12-18T03:19:40.648Z,7.80
2022-12-18T03:22:47.159Z,6.47
2022-12-18T03:25:06.145Z,5.93
2022-12-18T03:28:06.861Z,6.85
2022-12-18T03:30:50.368Z,6.65
2022-12-18T03:34:01.410Z,5.38
2022-12-18T03:37:05.725Z,5.85
2022-12-18T03:39:56.532Z,8.02
2022-12-18T03:42:32.207Z,7.28
2022-12-18T03:45:47.578Z,6.68
2022-12-18T03:48:42.945Z,7.00
2022-12-18T03:51:49.986Z,5.35
2022-12-18T03:54:27.447Z,6.63
2022-12-18T03:57:52.354Z,6.03
2022-12-18T04:00:51.495Z,7.07
2022-12-18T04:03:32.421Z,6.00
2022-12-18T04:06:38.995Z,5.68
2022-12-18T04:08:51.408Z,5.57
2022-12-18T04:11:56.617Z,6.72
2022-12-18T04:14:39.731Z,8.00
2022-12-18T04:17:16.119Z,6.15
2022-12-18T04:20:06.536Z,9.18
2022-12-18T04:22:43.645Z,8.82
2022-12-18T04:25:37.666Z,6.60
2022-12-18T04:28:34.697Z,6.47
2022-12-18T04:31:23.361Z,7.57
2022-12-18T04:34:12.310Z,5.60
2022-12-18T04:37:06.585Z,5.40
2022-12-18T04:40:03.846Z,7.03
2022-12-18T04:42:53.646Z,6.85
2022-12-18T04:45:42.322Z,5.20
2022-12-18T04:48:30.934Z,5.13
2022-12-18T04:51:27.426Z,4.97
2022-12-18T04:53:56.552Z,6.22
2022-12-18T04:56:48.861Z,7.20
2022-12-18T04:59:19.259Z,7.40
2022-12-18T05:02:17.337Z,8.65
2022-12-18T05:04:57.969Z,5.55
2022-12-18T05:07:40.758Z,5.75
2022-12-18T05:10:37.730Z,6.10
2022-12-18T05:13:31.200Z,9.70
2022-12-18T05:16:01.193Z,6.88
2022-12-18T05:18:59.775Z,6.82
2022-12-18T05:21:40.415Z,5.00
2022-12-18T05:24:44.550Z,5.85
2022-12-18T05:27:17.765Z,5.38
2022-12-18T05:30:07.701Z,5.20
2022-12-18T05:32:54.641Z,5.22
2022-12-18T05:35:51.278Z,4.72
2022-12-18T05:38:31.791Z,7.13
2022-12-18T05:41:20.905Z,8.18
2022-12-18T05:44:17.566Z,5.50
2022-12-18T05:46:58.207Z,6.38
2022-12-18T05:50:01.992Z,7.32
2022-12-18T05:52:36.777Z,10.32
2022-12-18T05:55:23.667Z,6.78
2022-12-18T05:58:11.983Z,8.32
2022-12-18T06:01:09.566Z,6.68
2022-12-18T06:04:08.883Z,9.43
2022-12-18T06:06:23.404Z,8.32
2022-12-18T06:09:22.483Z,7.28
2022-12-18T06:12:18.646Z,7.60
2022-12-18T06:14:59.607Z,9.35
2022-12-18T06:17:55.720Z,8.20
2022-12-18T06:20:38.358Z,8.77
2022-12-18T06:23:01.846Z,8.90
2022-12-18T06:25:54.338Z,6.55
2022-12-18T06:28:19.378Z,6.40
2022-12-18T06:31:20.056Z,5.28
2022-12-18T06:33:50.593Z,5.90
2022-12-18T06:36:56.486Z,7.80
2022-12-18T06:39:29.854Z,6.95
2022-12-18T06:42:18.614Z,11.27
2022-12-18T06:45:09.474Z,7.43
2022-12-18T06:48:10.841Z,5.68
2022-12-18T06:50:44.002Z,5.55
2022-12-18T06:53:12.257Z,6.28
2022-12-18T06:56:06.529Z,6.50
2022-12-18T06:58:51.069Z,8.30
2022-12-18T07:01:40.887Z,7.47
2022-12-18T07:04:30.743Z,6.88
2022-12-18T07:07:07.439Z,6.05
2022-12-18T07:09:59.043Z,5.32
2022-12-18T07:12:34.141Z,6.85
2022-12-18T07:15:13.247Z,7.72
2022-12-18T07:18:03.484Z,6.43
2022-12-18T07:20:31.077Z,7.53
2022-12-18T07:23:29.087Z,6.03
2022-12-18T07:26:14.276Z,6.18
2022-12-18T07:29:02.311Z,8.02
2022-12-18T07:31:50.474Z,7.95
2022-12-18T07:34:38.912Z,5.78
2022-12-18T07:37:27.600Z,5.60
2022-12-18T07:40:16.490Z,7.43
2022-12-18T07:43:07.077Z,8.85
2022-12-18T07:45:53.274Z,7.50
2022-12-18T07:48:50.451Z,6.10
2022-12-18T07:51:38.839Z,8.43
2022-12-18T07:54:20.602Z,7.78
2022-12-18T07:57:21.236Z,6.80
2022-12-18T07:59:57.754Z,8.35
2022-12-18T08:02:54.489Z,8.65
2022-12-18T08:05:24.109Z,6.80
2022-12-18T08:08:14.294Z,7.13
2022-12-18T08:11:10.604Z,8.88
2022-12-18T08:13:51.994Z,7.05
2022-12-18T08:16:50.179Z,11.18
2022-12-18T08:19:30.817Z,8.23
2022-12-18T08:22:00.103Z,13.75
2022-12-18T08:24:58.096Z,9.95
2022-12-18T08:27:54.006Z,10.93
2022-12-18T08:30:36.266Z,10.75
2022-12-18T08:33:16.069Z,7.50
2022-12-18T08:36:08.473Z,11.60
2022-12-18T08:38:39.594Z,8.75
2022-12-18T08:42:05.402Z,15.52
2022-12-18T08:44:53.984Z,8.93
2022-12-18T08:47:56.345Z,10.88
2022-12-18T08:50:29.787Z,10.63
2022-12-18T08:53:18.472Z,10.75
2022-12-18T08:55:50.214Z,9.38
2022-12-18T08:58:55.247Z,14.82
2022-12-18T09:01:53.082Z,14.50
2022-12-18T09:04:57.787Z,13.23
2022-12-18T09:07:28.838Z,9.48
2022-12-18T09:10:17.224Z,10.60
2022-12-18T09:13:06.362Z,10.88
2022-12-18T09:15:33.535Z,10.88
2022-12-18T09:18:23.468Z,9.40
2022-12-18T09:21:13.580Z,11.57
2022-12-18T09:24:02.217Z,9.23
2022-12-18T09:26:58.625Z,9.45
2022-12-18T09:29:49.963Z,10.70
2022-12-18T09:32:07.260Z,9.40
2022-12-18T09:35:05.263Z,10.13
2022-12-18T09:37:48.911Z,8.27
2022-12-18T09:40:43.366Z,11.68
2022-12-18T09:43:26.407Z,11.07
2022-12-18T09:46:23.565Z,9.07
2022-12-18T09:49:14.927Z,10.05
2022-12-18T09:52:02.948Z,8.82
2022-12-18T09:54:48.315Z,8.68
2022-12-18T09:57:44.319Z,9.95
2022-12-18T10:00:50.531Z,11.20
2022-12-18T10:03:51.839Z,11.00
2022-12-18T10:06:42.061Z,10.90
2022-12-18T10:09:59.689Z,7.18
2022-12-18T10:13:06.050Z,10.63
2022-12-18T10:15:47.747Z,12.10
2022-12-18T10:18:58.577Z,11.95
2022-12-18T10:22:01.162Z,10.50
2022-12-18T10:24:58.649Z,9.85
2022-12-18T10:27:51.434Z,12.80
2022-12-18T10:30:48.048Z,16.20
2022-12-18T10:33:38.484Z,18.42
2022-12-18T10:36:07.422Z,18.13
2022-12-18T10:38:58.088Z,11.57
2022-12-18T10:41:57.978Z,13.90
2022-12-18T10:44:54.918Z,12.73
2022-12-18T10:47:23.585Z,11.02
2022-12-18T10:50:40.728Z,11.32
2022-12-18T10:53:22.300Z,10.73
2022-12-18T10:56:13.917Z,14.73
2022-12-18T10:59:04.749Z,17.85
2022-12-18T11:01:45.559Z,18.98
2022-12-18T11:04:20.039Z,12.05
2022-12-18T11:07:44.488Z,19.10
2022-12-18T11:10:05.732Z,19.50
2022-12-18T11:13:03.313Z,23.45
2022-12-18T11:16:00.617Z,13.80
2022-12-18T11:19:05.914Z,15.05
2022-12-18T11:21:27.880Z,16.33
2022-12-18T11:24:18.065Z,12.65
2022-12-18T11:27:06.904Z,13.10
2022-12-18T11:29:44.926Z,11.80
2022-12-18T11:33:08.735Z,11.52
2022-12-18T11:35:53.637Z,14.05
2022-12-18T11:39:02.477Z,11.88
2022-12-18T11:42:23.138Z,12.02
2022-12-18T11:45:44.039Z,11.75
2022-12-18T11:48:48.632Z,13.70
2022-12-18T11:51:29.501Z,12.90
2022-12-18T11:54:03.046Z,10.18
2022-12-18T11:57:02.874Z,9.80
2022-12-18T12:00:30.106Z,10.15
2022-12-18T12:03:28.225Z,9.82
2022-12-18T12:06:16.934Z,10.07
2022-12-18T12:09:34.145Z,10.80
2022-12-18T12:12:45.223Z,10.65
2022-12-18T12:15:56.711Z,9.35
2022-12-18T12:19:14.475Z,11.77
2022-12-18T12:22:20.488Z,11.45
2022-12-18T12:25:13.699Z,15.48
2022-12-18T12:28:35.337Z,15.05
2022-12-18T12:31:38.855Z,14.73
2022-12-18T12:35:01.757Z,12.95
2022-12-18T12:37:32.283Z,15.02
2022-12-18T12:43:54.730Z,18.98
2022-12-18T12:46:37.611Z,14.15
2022-12-18T12:49:35.243Z,16.38
2022-12-18T12:52:28.705Z,21.35
2022-12-18T12:55:18.344Z,19.08
2022-12-18T12:58:48.681Z,25.38
2022-12-18T13:02:03.459Z,27.10
2022-12-18T13:04:31.683Z,27.48
2022-12-18T13:07:27.974Z,27.85
2022-12-18T13:10:50.182Z,31.33
2022-12-18T13:13:08.154Z,31.85
2022-12-18T13:16:49.524Z,32.33
2022-12-18T13:19:24.512Z,29.67
2022-12-18T13:21:56.499Z,32.67
2022-12-18T13:24:54.289Z,44.08
2022-12-18T13:28:15.328Z,32.90
2022-12-18T13:30:57.409Z,39.05
2022-12-18T13:34:17.022Z,35.90
2022-12-18T13:36:53.837Z,30.90
2022-12-18T13:39:57.699Z,30.10
2022-12-18T13:42:46.989Z,30.40
2022-12-18T13:45:24.579Z,28.33
2022-12-18T13:48:08.386Z,30.42
2022-12-18T13:51:05.202Z,28.70
2022-12-18T13:54:01.669Z,27.83
2022-12-18T13:56:41.277Z,24.80
2022-12-18T13:59:53.966Z,27.02
2022-12-18T14:02:48.511Z,22.88
2022-12-18T14:05:45.316Z,23.95
2022-12-18T14:08:37.826Z,26.88
2022-12-18T14:11:36.215Z,21.95
2022-12-18T14:14:17.973Z,26.60
2022-12-18T14:17:22.034Z,19.67
2022-12-18T14:20:13.325Z,18.73
2022-12-18T14:22:55.335Z,20.63
2022-12-18T14:25:53.450Z,17.73
2022-12-18T14:28:37.486Z,17.35
2022-12-18T14:31:35.272Z,16.15
2022-12-18T14:34:16.785Z,21.40
2022-12-18T14:37:16.633Z,16.20
2022-12-18T14:40:10.644Z,16.58
2022-12-18T14:42:57.373Z,15.68
2022-12-18T14:46:20.285Z,15.57
2022-12-18T14:49:13.870Z,15.05
2022-12-18T14:52:03.785Z,17.30
2022-12-18T14:54:57.543Z,16.08
2022-12-18T14:57:48.469Z,19.55
2022-12-18T15:00:44.843Z,17.98
2022-12-18T15:03:11.587Z,18.27
2022-12-18T15:06:09.620Z,19.00
2022-12-18T15:08:39.677Z,19.23
2022-12-18T15:11:37.381Z,18.30
2022-12-18T15:15:03.084Z,17.88
2022-12-18T15:18:01.742Z,25.05
2022-12-18T15:20:50.507Z,24.77
2022-12-18T15:23:23.905Z,29.20
2022-12-18T15:26:19.854Z,28.67
2022-12-18T15:29:23.442Z,33.30
2022-12-18T15:32:24.432Z,23.33
2022-12-18T15:34:53.701Z,19.92
2022-12-18T15:37:43.731Z,26.23
2022-12-18T15:40:28.878Z,23.50
2022-12-18T15:43:40.788Z,21.60
2022-12-18T15:46:42.382Z,19.80
2022-12-18T15:49:38.529Z,20.98
2022-12-18T15:52:33.015Z,22.83
2022-12-18T15:55:24.353Z,17.88
2022-12-18T15:58:28.113Z,17.27
2022-12-18T16:01:11.604Z,17.63
2022-12-18T16:04:01.352Z,17.25
2022-12-18T16:07:12.823Z,16.38
2022-12-18T16:09:46.639Z,15.07
2022-12-18T16:12:04.620Z,14.02
2022-12-18T16:14:55.390Z,14.95
2022-12-18T16:17:43.931Z,16.52
2022-12-18T16:20:40.519Z,16.52
2022-12-18T16:23:18.686Z,18.58
2022-12-18T16:26:15.565Z,21.02
2022-12-18T16:29:11.630Z,18.83
2022-12-18T16:32:09.466Z,20.10
2022-12-18T16:34:36.286Z,20.25
2022-12-18T16:37:10.224Z,15.73
2022-12-18T16:40:01.704Z,16.27
2022-12-18T16:42:50.244Z,17.63
2022-12-18T16:45:41.381Z,16.80
2022-12-18T16:48:38.167Z,18.20
2022-12-18T16:51:27.329Z,37.42
2022-12-18T16:54:19.921Z,22.33
2022-12-18T16:56:48.897Z,22.75
2022-12-18T16:59:47.476Z,18.00
2022-12-18T17:02:36.161Z,12.85
2022-12-18T17:05:29.150Z,14.63
2022-12-18T17:08:09.781Z,15.52
2022-12-18T17:11:03.443Z,16.52
2022-12-18T17:13:58.182Z,15.80
2022-12-18T17:16:19.121Z,16.08
2022-12-18T17:19:16.626Z,14.90
2022-12-18T17:22:17.367Z,16.08
2022-12-18T17:24:51.246Z,16.05
2022-12-18T17:27:46.293Z,15.57
2022-12-18T17:30:43.360Z,12.98
2022-12-18T17:33:28.141Z,15.05
2022-12-18T17:35:59.382Z,12.98
2022-12-18T17:38:57.069Z,18.77
2022-12-18T17:41:38.855Z,15.15
2022-12-18T17:44:36.394Z,14.27
2022-12-18T17:47:32.730Z,10.77
2022-12-18T17:50:05.870Z,9.43
2022-12-18T17:52:55.482Z,10.23
2022-12-18T17:55:43.671Z,8.73
2022-12-18T17:58:12.635Z,8.88
2022-12-18T18:00:41.571Z,10.57
2022-12-18T18:03:20.065Z,11.07
2022-12-18T18:06:00.552Z,8.75
2022-12-18T18:08:59.385Z,9.95
2022-12-18T18:12:12.541Z,9.52
2022-12-18T18:15:01.107Z,8.52
2022-12-18T18:17:52.195Z,9.23
2022-12-18T18:20:44.608Z,7.78
2022-12-18T18:23:36.275Z,9.65
2022-12-18T18:26:30.733Z,10.05
2022-12-18T18:29:29.012Z,14.43
2022-12-18T18:32:09.369Z,12.00
2022-12-18T18:34:57.820Z,9.43
2022-12-18T18:37:56.332Z,12.55
2022-12-18T18:40:37.023Z,9.10
2022-12-18T18:43:40.312Z,10.23
2022-12-18T18:46:25.373Z,8.90
2022-12-18T18:48:54.999Z,8.52
2022-12-18T18:51:31.474Z,12.85
2022-12-18T18:54:36.296Z,9.38
2022-12-18T18:57:19.991Z,11.70
2022-12-18T18:59:49.545Z,11.70
2022-12-18T19:02:18.237Z,9.02
2022-12-18T19:05:08.542Z,10.98
2022-12-18T19:08:04.799Z,9.13
2022-12-18T19:10:57.708Z,9.02
2022-12-18T19:13:45.324Z,7.68
2022-12-18T19:16:20.403Z,10.75
2022-12-18T19:19:16.215Z,8.57
2022-12-18T19:22:04.861Z,9.57
2022-12-18T19:25:12.142Z,10.15
2022-12-18T19:27:28.509Z,8.98
2022-12-18T19:30:18.703Z,8.13
2022-12-18T19:33:41.575Z,11.93
2022-12-18T19:35:41.727Z,10.48
2022-12-18T19:38:31.885Z,10.50
2022-12-18T19:41:02.090Z,10.00
2022-12-18T19:43:41.915Z,8.98
2022-12-18T19:46:42.170Z,10.38
2022-12-18T19:49:22.352Z,12.10
2022-12-18T19:52:25.837Z,11.00
2022-12-18T19:55:06.519Z,9.25
2022-12-18T19:58:03.357Z,9.38
2022-12-18T20:00:38.720Z,11.60
2022-12-18T20:03:38.747Z,11.18
2022-12-18T20:06:25.222Z,10.85
2022-12-18T20:09:19.427Z,11.38
2022-12-18T20:12:07.791Z,14.25
2022-12-18T20:14:41.233Z,11.02
2022-12-18T20:17:12.333Z,12.32
2022-12-18T20:19:40.438Z,14.55
2022-12-18T20:22:29.828Z,10.65
2022-12-18T20:25:19.956Z,13.52
2022-12-18T20:27:48.193Z,12.57
2022-12-18T20:30:27.231Z,15.85
2022-12-18T20:33:17.372Z,14.13
2022-12-18T20:35:43.700Z,15.30
2022-12-18T20:38:17.371Z,15.23
2022-12-18T20:41:08.024Z,13.32
2022-12-18T20:43:44.505Z,12.70
2022-12-18T20:46:44.862Z,14.10
2022-12-18T20:49:12.574Z,12.88
2022-12-18T20:52:05.191Z,15.98
2022-12-18T20:54:41.240Z,13.63
2022-12-18T20:57:31.313Z,14.25
2022-12-18T21:00:00.241Z,17.10
2022-12-18T21:02:54.796Z,14.32
2022-12-18T21:05:49.374Z,15.85
2022-12-18T21:08:30.106Z,17.05
2022-12-18T21:11:16.587Z,13.23
2022-12-18T21:14:06.362Z,15.02
2022-12-18T21:17:01.214Z,13.80
2022-12-18T21:19:34.122Z,16.77
2022-12-18T21:22:32.253Z,17.10
2022-12-18T21:25:10.395Z,15.73
2022-12-18T21:27:59.119Z,17.65
2022-12-18T21:30:59.832Z,15.17
2022-12-18T21:33:30.396Z,19.85
2022-12-18T21:36:20.393Z,16.95
2022-12-18T21:38:52.377Z,16.45
2022-12-18T21:42:12.865Z,19.38
2022-12-18T21:44:42.059Z,17.40
2022-12-18T21:47:22.091Z,16.30
2022-12-18T21:50:21.481Z,19.90
2022-12-18T21:53:15.694Z,17.23
2022-12-18T21:56:01.761Z,15.70
2022-12-18T21:58:31.861Z,14.90
2022-12-18T22:01:21.992Z,14.02
2022-12-18T22:04:18.492Z,14.80
2022-12-18T22:07:14.881Z,16.55
2022-12-18T22:09:50.219Z,15.50
2022-12-18T22:12:43.248Z,15.20
2022-12-18T22:15:40.235Z,14.75
2022-12-18T22:18:28.830Z,16.48
2022-12-18T22:21:32.990Z,15.63
2022-12-18T22:24:37.626Z,16.58
2022-12-18T22:27:01.599Z,13.00
2022-12-18T22:30:12.552Z,14.77
2022-12-18T22:32:59.713Z,14.88
2022-12-18T22:35:45.345Z,18.88
2022-12-18T22:41:12.081Z,15.98
2022-12-18T22:44:09.618Z,18.48
2022-12-18T22:46:52.407Z,16.02
2022-12-18T22:49:35.487Z,14.52
2022-12-18T22:52:28.552Z,17.27
2022-12-18T22:55:18.341Z,16.13
2022-12-18T22:58:05.377Z,18.27
2022-12-18T23:00:56.487Z,14.95
2022-12-18T23:03:50.772Z,17.70
2022-12-18T23:06:33.129Z,16.38
2022-12-18T23:09:21.525Z,13.05
2022-12-18T23:12:18.365Z,13.48
2022-12-18T23:15:14.400Z,14.23
2022-12-18T23:17:47.564Z,14.85
2022-12-18T23:20:43.808Z,16.48
2022-12-18T23:23:24.865Z,14.60
2022-12-18T23:26:23.678Z,14.57
2022-12-18T23:29:19.714Z,14.27
2022-12-18T23:32:01.855Z,14.15
2022-12-18T23:34:50.316Z,13.88
2022-12-18T23:37:57.487Z,14.85
2022-12-18T23:40:27.868Z,12.50
2022-12-18T23:43:32.451Z,17.80
2022-12-18T23:46:05.362Z,13.82
2022-12-18T23:48:53.725Z,15.05
2022-12-18T23:51:45.856Z,14.00
2022-12-18T23:54:34.303Z,14.98
2022-12-18T23:57:30.988Z,13.13
